sensor_id;sensor_type;location;lat;lon;timestamp;P1;durP1;ratioP1;P2;durP2;ratioP2
81523;SDS011;70954;49.500;10.416;2024-01-06T00:00:09;2.15;;;1.17;;
81523;SDS011;70954;49.500;10.416;2024-01-06T00:02:35;2.33;;;1.25;;
81523;SDS011;70954;49.500;10.416;2024-01-06T00:05:00;1.35;;;1.10;;
81523;SDS011;70954;49.500;10.416;2024-01-06T00:07:25;1.48;;;1.20;;
81523;SDS011;70954;49.500;10.416;2024-01-06T00:09:51;1.20;;;1.05;;
81523;SDS011;70954;49.500;10.416;2024-01-06T00:12:16;1.42;;;1.02;;
81523;SDS011;70954;49.500;10.416;2024-01-06T00:14:42;1.45;;;1.00;;
81523;SDS011;70954;49.500;10.416;2024-01-06T00:17:07;1.48;;;1.17;;
81523;SDS011;70954;49.500;10.416;2024-01-06T00:19:33;1.27;;;1.10;;
81523;SDS011;70954;49.500;10.416;2024-01-06T00:21:58;2.13;;;1.40;;
81523;SDS011;70954;49.500;10.416;2024-01-06T00:24:23;1.63;;;1.17;;
81523;SDS011;70954;49.500;10.416;2024-01-06T00:26:49;1.20;;;1.08;;
81523;SDS011;70954;49.500;10.416;2024-01-06T00:29:14;1.38;;;1.08;;
81523;SDS011;70954;49.500;10.416;2024-01-06T00:31:40;2.13;;;1.20;;
81523;SDS011;70954;49.500;10.416;2024-01-06T00:34:05;1.35;;;1.23;;
81523;SDS011;70954;49.500;10.416;2024-01-06T00:36:30;1.42;;;1.20;;
81523;SDS011;70954;49.500;10.416;2024-01-06T00:38:56;1.77;;;1.13;;
81523;SDS011;70954;49.500;10.416;2024-01-06T00:41:21;2.50;;;1.25;;
81523;SDS011;70954;49.500;10.416;2024-01-06T00:43:47;2.25;;;1.38;;
81523;SDS011;70954;49.500;10.416;2024-01-06T00:46:12;1.20;;;1.00;;
81523;SDS011;70954;49.500;10.416;2024-01-06T00:48:38;1.10;;;1.00;;
81523;SDS011;70954;49.500;10.416;2024-01-06T00:51:03;1.70;;;1.15;;
81523;SDS011;70954;49.500;10.416;2024-01-06T00:53:29;2.03;;;1.48;;
81523;SDS011;70954;49.500;10.416;2024-01-06T00:55:54;1.60;;;1.25;;
81523;SDS011;70954;49.500;10.416;2024-01-06T00:58:19;1.75;;;1.20;;
81523;SDS011;70954;49.500;10.416;2024-01-06T01:00:45;1.70;;;1.13;;
81523;SDS011;70954;49.500;10.416;2024-01-06T01:03:10;2.33;;;1.38;;
81523;SDS011;70954;49.500;10.416;2024-01-06T01:05:36;1.67;;;1.38;;
81523;SDS011;70954;49.500;10.416;2024-01-06T01:08:01;1.85;;;1.13;;
81523;SDS011;70954;49.500;10.416;2024-01-06T01:10:27;2.17;;;1.40;;
81523;SDS011;70954;49.500;10.416;2024-01-06T01:12:52;1.88;;;1.20;;
81523;SDS011;70954;49.500;10.416;2024-01-06T01:15:17;1.80;;;1.30;;
81523;SDS011;70954;49.500;10.416;2024-01-06T01:17:43;1.08;;;0.98;;
81523;SDS011;70954;49.500;10.416;2024-01-06T01:20:09;2.05;;;1.30;;
81523;SDS011;70954;49.500;10.416;2024-01-06T01:22:35;2.28;;;1.08;;
81523;SDS011;70954;49.500;10.416;2024-01-06T01:25:00;2.65;;;1.40;;
81523;SDS011;70954;49.500;10.416;2024-01-06T01:27:25;1.13;;;1.00;;
81523;SDS011;70954;49.500;10.416;2024-01-06T01:29:51;1.40;;;1.30;;
81523;SDS011;70954;49.500;10.416;2024-01-06T01:32:16;2.03;;;1.33;;
81523;SDS011;70954;49.500;10.416;2024-01-06T01:34:42;3.08;;;1.42;;
81523;SDS011;70954;49.500;10.416;2024-01-06T01:37:07;1.70;;;1.38;;
81523;SDS011;70954;49.500;10.416;2024-01-06T01:39:32;2.00;;;1.35;;
81523;SDS011;70954;49.500;10.416;2024-01-06T01:41:58;1.90;;;1.33;;
81523;SDS011;70954;49.500;10.416;2024-01-06T01:44:23;3.38;;;1.75;;
81523;SDS011;70954;49.500;10.416;2024-01-06T01:46:49;2.35;;;1.40;;
81523;SDS011;70954;49.500;10.416;2024-01-06T01:49:14;1.48;;;1.17;;
81523;SDS011;70954;49.500;10.416;2024-01-06T01:51:40;3.00;;;1.50;;
81523;SDS011;70954;49.500;10.416;2024-01-06T01:54:06;2.95;;;1.33;;
81523;SDS011;70954;49.500;10.416;2024-01-06T01:56:32;2.42;;;1.48;;
81523;SDS011;70954;49.500;10.416;2024-01-06T01:58:58;1.40;;;1.13;;
81523;SDS011;70954;49.500;10.416;2024-01-06T02:01:26;1.33;;;1.20;;
81523;SDS011;70954;49.500;10.416;2024-01-06T02:03:51;2.13;;;1.70;;
81523;SDS011;70954;49.500;10.416;2024-01-06T02:06:17;3.30;;;2.30;;
81523;SDS011;70954;49.500;10.416;2024-01-06T02:08:43;3.72;;;2.72;;
81523;SDS011;70954;49.500;10.416;2024-01-06T02:11:08;2.90;;;1.98;;
81523;SDS011;70954;49.500;10.416;2024-01-06T02:13:34;2.63;;;1.67;;
81523;SDS011;70954;49.500;10.416;2024-01-06T02:16:02;2.45;;;1.80;;
81523;SDS011;70954;49.500;10.416;2024-01-06T02:18:28;1.77;;;1.13;;
81523;SDS011;70954;49.500;10.416;2024-01-06T02:20:53;2.83;;;1.38;;
81523;SDS011;70954;49.500;10.416;2024-01-06T02:25:48;2.38;;;1.35;;
81523;SDS011;70954;49.500;10.416;2024-01-06T02:28:14;2.95;;;1.10;;
81523;SDS011;70954;49.500;10.416;2024-01-06T02:30:39;1.33;;;1.15;;
81523;SDS011;70954;49.500;10.416;2024-01-06T02:33:05;2.78;;;1.10;;
81523;SDS011;70954;49.500;10.416;2024-01-06T02:35:30;1.35;;;1.23;;
81523;SDS011;70954;49.500;10.416;2024-01-06T02:37:55;1.45;;;1.05;;
81523;SDS011;70954;49.500;10.416;2024-01-06T02:40:21;1.17;;;1.08;;
81523;SDS011;70954;49.500;10.416;2024-01-06T02:42:46;1.20;;;1.00;;
81523;SDS011;70954;49.500;10.416;2024-01-06T02:45:12;1.60;;;1.10;;
81523;SDS011;70954;49.500;10.416;2024-01-06T02:47:37;0.73;;;0.73;;
81523;SDS011;70954;49.500;10.416;2024-01-06T02:50:03;1.63;;;1.10;;
81523;SDS011;70954;49.500;10.416;2024-01-06T02:52:29;1.77;;;1.10;;
81523;SDS011;70954;49.500;10.416;2024-01-06T02:54:54;1.92;;;1.08;;
81523;SDS011;70954;49.500;10.416;2024-01-06T02:57:20;1.75;;;0.93;;
81523;SDS011;70954;49.500;10.416;2024-01-06T02:59:45;1.17;;;0.85;;
81523;SDS011;70954;49.500;10.416;2024-01-06T03:02:11;1.83;;;0.93;;
81523;SDS011;70954;49.500;10.416;2024-01-06T03:04:36;1.13;;;0.68;;
81523;SDS011;70954;49.500;10.416;2024-01-06T03:07:02;0.70;;;0.70;;
81523;SDS011;70954;49.500;10.416;2024-01-06T03:09:27;1.77;;;0.90;;
81523;SDS011;70954;49.500;10.416;2024-01-06T03:11:53;0.70;;;0.70;;
81523;SDS011;70954;49.500;10.416;2024-01-06T03:14:18;1.20;;;1.10;;
81523;SDS011;70954;49.500;10.416;2024-01-06T03:16:43;1.73;;;0.82;;
81523;SDS011;70954;49.500;10.416;2024-01-06T03:19:09;1.77;;;0.90;;
81523;SDS011;70954;49.500;10.416;2024-01-06T03:21:34;1.30;;;0.80;;
81523;SDS011;70954;49.500;10.416;2024-01-06T03:24:00;4.03;;;1.48;;
81523;SDS011;70954;49.500;10.416;2024-01-06T03:26:25;1.25;;;1.10;;
81523;SDS011;70954;49.500;10.416;2024-01-06T03:28:51;0.93;;;0.82;;
81523;SDS011;70954;49.500;10.416;2024-01-06T03:31:16;1.38;;;0.90;;
81523;SDS011;70954;49.500;10.416;2024-01-06T03:33:42;1.35;;;1.02;;
81523;SDS011;70954;49.500;10.416;2024-01-06T03:36:09;1.70;;;1.10;;
81523;SDS011;70954;49.500;10.416;2024-01-06T03:38:34;1.50;;;1.00;;
81523;SDS011;70954;49.500;10.416;2024-01-06T03:41:00;2.20;;;1.35;;
81523;SDS011;70954;49.500;10.416;2024-01-06T03:43:25;1.42;;;0.80;;
81523;SDS011;70954;49.500;10.416;2024-01-06T03:45:51;1.67;;;1.10;;
81523;SDS011;70954;49.500;10.416;2024-01-06T03:48:16;2.20;;;1.05;;
81523;SDS011;70954;49.500;10.416;2024-01-06T03:50:41;1.80;;;0.90;;
81523;SDS011;70954;49.500;10.416;2024-01-06T03:53:07;1.67;;;1.00;;
81523;SDS011;70954;49.500;10.416;2024-01-06T03:55:33;1.15;;;1.05;;
81523;SDS011;70954;49.500;10.416;2024-01-06T03:57:58;1.88;;;1.08;;
81523;SDS011;70954;49.500;10.416;2024-01-06T04:00:25;1.20;;;0.88;;
81523;SDS011;70954;49.500;10.416;2024-01-06T04:02:50;2.03;;;1.08;;
81523;SDS011;70954;49.500;10.416;2024-01-06T04:05:16;2.13;;;1.00;;
81523;SDS011;70954;49.500;10.416;2024-01-06T04:07:41;1.30;;;1.10;;
81523;SDS011;70954;49.500;10.416;2024-01-06T04:10:07;2.30;;;1.35;;
81523;SDS011;70954;49.500;10.416;2024-01-06T04:12:32;1.58;;;0.95;;
81523;SDS011;70954;49.500;10.416;2024-01-06T04:14:58;1.10;;;1.00;;
81523;SDS011;70954;49.500;10.416;2024-01-06T04:17:23;1.42;;;1.00;;
81523;SDS011;70954;49.500;10.416;2024-01-06T04:19:49;1.58;;;1.08;;
81523;SDS011;70954;49.500;10.416;2024-01-06T04:22:14;1.70;;;0.88;;
81523;SDS011;70954;49.500;10.416;2024-01-06T04:24:40;1.25;;;0.88;;
81523;SDS011;70954;49.500;10.416;2024-01-06T04:27:05;1.73;;;1.20;;
81523;SDS011;70954;49.500;10.416;2024-01-06T04:29:30;1.00;;;0.90;;
81523;SDS011;70954;49.500;10.416;2024-01-06T04:31:56;0.77;;;0.70;;
81523;SDS011;70954;49.500;10.416;2024-01-06T04:34:21;1.30;;;0.98;;
81523;SDS011;70954;49.500;10.416;2024-01-06T04:36:47;0.80;;;0.80;;
81523;SDS011;70954;49.500;10.416;2024-01-06T04:39:12;1.40;;;0.98;;
81523;SDS011;70954;49.500;10.416;2024-01-06T04:41:38;0.88;;;0.80;;
81523;SDS011;70954;49.500;10.416;2024-01-06T04:44:04;1.70;;;1.17;;
81523;SDS011;70954;49.500;10.416;2024-01-06T04:46:29;0.80;;;0.80;;
81523;SDS011;70954;49.500;10.416;2024-01-06T04:48:55;1.13;;;1.00;;
81523;SDS011;70954;49.500;10.416;2024-01-06T04:51:20;2.17;;;1.25;;
81523;SDS011;70954;49.500;10.416;2024-01-06T04:53:46;1.30;;;0.95;;
81523;SDS011;70954;49.500;10.416;2024-01-06T04:56:11;1.13;;;0.90;;
81523;SDS011;70954;49.500;10.416;2024-01-06T04:58:36;1.52;;;0.90;;
81523;SDS011;70954;49.500;10.416;2024-01-06T05:01:02;1.27;;;0.80;;
81523;SDS011;70954;49.500;10.416;2024-01-06T05:03:28;2.10;;;1.10;;
81523;SDS011;70954;49.500;10.416;2024-01-06T05:05:53;1.55;;;1.00;;
81523;SDS011;70954;49.500;10.416;2024-01-06T05:08:18;0.90;;;0.80;;
81523;SDS011;70954;49.500;10.416;2024-01-06T05:10:44;1.67;;;0.85;;
81523;SDS011;70954;49.500;10.416;2024-01-06T05:13:09;0.75;;;0.75;;
81523;SDS011;70954;49.500;10.416;2024-01-06T05:15:35;1.23;;;0.90;;
81523;SDS011;70954;49.500;10.416;2024-01-06T05:18:00;2.17;;;1.10;;
81523;SDS011;70954;49.500;10.416;2024-01-06T05:20:26;1.48;;;1.00;;
81523;SDS011;70954;49.500;10.416;2024-01-06T05:22:51;1.23;;;1.08;;
81523;SDS011;70954;49.500;10.416;2024-01-06T05:25:17;4.63;;;1.20;;
81523;SDS011;70954;49.500;10.416;2024-01-06T05:27:42;2.10;;;1.08;;
81523;SDS011;70954;49.500;10.416;2024-01-06T05:30:08;1.75;;;1.13;;
81523;SDS011;70954;49.500;10.416;2024-01-06T05:32:33;2.80;;;1.35;;
81523;SDS011;70954;49.500;10.416;2024-01-06T05:34:59;2.00;;;1.40;;
81523;SDS011;70954;49.500;10.416;2024-01-06T05:37:24;1.60;;;1.10;;
81523;SDS011;70954;49.500;10.416;2024-01-06T05:39:50;3.50;;;1.20;;
81523;SDS011;70954;49.500;10.416;2024-01-06T05:42:15;2.65;;;1.10;;
81523;SDS011;70954;49.500;10.416;2024-01-06T05:44:40;2.88;;;1.10;;
81523;SDS011;70954;49.500;10.416;2024-01-06T05:47:06;1.70;;;1.10;;
81523;SDS011;70954;49.500;10.416;2024-01-06T05:49:31;1.67;;;1.35;;
81523;SDS011;70954;49.500;10.416;2024-01-06T05:51:57;1.77;;;1.20;;
81523;SDS011;70954;49.500;10.416;2024-01-06T05:54:22;2.13;;;1.02;;
81523;SDS011;70954;49.500;10.416;2024-01-06T05:56:48;4.30;;;1.23;;
81523;SDS011;70954;49.500;10.416;2024-01-06T05:59:13;1.55;;;1.13;;
81523;SDS011;70954;49.500;10.416;2024-01-06T06:01:38;1.80;;;1.17;;
81523;SDS011;70954;49.500;10.416;2024-01-06T06:04:04;1.33;;;1.00;;
81523;SDS011;70954;49.500;10.416;2024-01-06T06:06:29;2.13;;;1.15;;
81523;SDS011;70954;49.500;10.416;2024-01-06T06:08:55;2.17;;;1.23;;
81523;SDS011;70954;49.500;10.416;2024-01-06T06:11:20;1.70;;;1.02;;
81523;SDS011;70954;49.500;10.416;2024-01-06T06:13:46;1.95;;;1.50;;
81523;SDS011;70954;49.500;10.416;2024-01-06T06:16:11;2.67;;;1.13;;
81523;SDS011;70954;49.500;10.416;2024-01-06T06:18:38;3.58;;;1.27;;
81523;SDS011;70954;49.500;10.416;2024-01-06T06:21:03;1.30;;;1.05;;
81523;SDS011;70954;49.500;10.416;2024-01-06T06:23:32;1.63;;;0.98;;
81523;SDS011;70954;49.500;10.416;2024-01-06T06:25:58;1.98;;;1.10;;
81523;SDS011;70954;49.500;10.416;2024-01-06T06:28:23;4.60;;;1.20;;
81523;SDS011;70954;49.500;10.416;2024-01-06T06:30:48;1.83;;;1.38;;
81523;SDS011;70954;49.500;10.416;2024-01-06T06:33:14;1.58;;;1.33;;
81523;SDS011;70954;49.500;10.416;2024-01-06T06:35:39;1.40;;;1.17;;
81523;SDS011;70954;49.500;10.416;2024-01-06T06:38:05;1.60;;;1.23;;
81523;SDS011;70954;49.500;10.416;2024-01-06T06:40:30;1.88;;;1.50;;
81523;SDS011;70954;49.500;10.416;2024-01-06T06:42:56;1.90;;;1.52;;
81523;SDS011;70954;49.500;10.416;2024-01-06T06:45:21;2.35;;;1.50;;
81523;SDS011;70954;49.500;10.416;2024-01-06T06:47:46;1.88;;;1.50;;
81523;SDS011;70954;49.500;10.416;2024-01-06T06:50:12;1.40;;;1.30;;
81523;SDS011;70954;49.500;10.416;2024-01-06T06:52:37;2.00;;;1.52;;
81523;SDS011;70954;49.500;10.416;2024-01-06T06:55:03;1.92;;;1.67;;
81523;SDS011;70954;49.500;10.416;2024-01-06T06:57:28;2.10;;;1.25;;
81523;SDS011;70954;49.500;10.416;2024-01-06T06:59:54;1.58;;;1.27;;
81523;SDS011;70954;49.500;10.416;2024-01-06T07:02:19;1.70;;;1.50;;
81523;SDS011;70954;49.500;10.416;2024-01-06T07:04:45;2.72;;;1.55;;
81523;SDS011;70954;49.500;10.416;2024-01-06T07:07:10;2.35;;;1.70;;
81523;SDS011;70954;49.500;10.416;2024-01-06T07:09:35;3.42;;;1.70;;
81523;SDS011;70954;49.500;10.416;2024-01-06T07:12:01;2.28;;;1.70;;
81523;SDS011;70954;49.500;10.416;2024-01-06T07:14:26;2.05;;;1.42;;
81523;SDS011;70954;49.500;10.416;2024-01-06T07:16:52;1.90;;;1.45;;
81523;SDS011;70954;49.500;10.416;2024-01-06T07:19:17;2.55;;;1.50;;
81523;SDS011;70954;49.500;10.416;2024-01-06T07:21:43;3.17;;;1.58;;
81523;SDS011;70954;49.500;10.416;2024-01-06T07:24:08;2.78;;;1.65;;
81523;SDS011;70954;49.500;10.416;2024-01-06T07:26:34;2.25;;;1.70;;
81523;SDS011;70954;49.500;10.416;2024-01-06T07:28:59;3.90;;;1.85;;
81523;SDS011;70954;49.500;10.416;2024-01-06T07:31:24;2.50;;;1.65;;
81523;SDS011;70954;49.500;10.416;2024-01-06T07:33:50;2.95;;;1.63;;
81523;SDS011;70954;49.500;10.416;2024-01-06T07:36:15;2.35;;;1.63;;
81523;SDS011;70954;49.500;10.416;2024-01-06T07:38:41;2.85;;;1.80;;
81523;SDS011;70954;49.500;10.416;2024-01-06T07:41:06;1.70;;;1.42;;
81523;SDS011;70954;49.500;10.416;2024-01-06T07:43:32;2.38;;;1.60;;
81523;SDS011;70954;49.500;10.416;2024-01-06T07:45:57;2.53;;;1.48;;
81523;SDS011;70954;49.500;10.416;2024-01-06T07:48:23;2.38;;;1.70;;
81523;SDS011;70954;49.500;10.416;2024-01-06T07:50:48;2.03;;;1.33;;
81523;SDS011;70954;49.500;10.416;2024-01-06T07:53:14;1.95;;;1.80;;
81523;SDS011;70954;49.500;10.416;2024-01-06T07:55:40;3.38;;;1.88;;
81523;SDS011;70954;49.500;10.416;2024-01-06T07:58:05;2.13;;;1.65;;
81523;SDS011;70954;49.500;10.416;2024-01-06T08:00:31;2.10;;;1.50;;
81523;SDS011;70954;49.500;10.416;2024-01-06T08:02:56;3.22;;;2.28;;
81523;SDS011;70954;49.500;10.416;2024-01-06T08:05:22;3.33;;;2.00;;
81523;SDS011;70954;49.500;10.416;2024-01-06T08:07:47;3.22;;;2.20;;
81523;SDS011;70954;49.500;10.416;2024-01-06T08:10:13;3.08;;;2.10;;
81523;SDS011;70954;49.500;10.416;2024-01-06T08:12:38;3.40;;;2.10;;
81523;SDS011;70954;49.500;10.416;2024-01-06T08:15:04;3.53;;;1.95;;
81523;SDS011;70954;49.500;10.416;2024-01-06T08:17:29;3.72;;;2.45;;
81523;SDS011;70954;49.500;10.416;2024-01-06T08:19:55;3.22;;;2.20;;
81523;SDS011;70954;49.500;10.416;2024-01-06T08:22:20;2.72;;;2.10;;
81523;SDS011;70954;49.500;10.416;2024-01-06T08:24:46;3.63;;;2.40;;
81523;SDS011;70954;49.500;10.416;2024-01-06T08:27:11;6.18;;;3.05;;
81523;SDS011;70954;49.500;10.416;2024-01-06T08:29:37;3.47;;;2.50;;
81523;SDS011;70954;49.500;10.416;2024-01-06T08:32:02;3.88;;;2.47;;
81523;SDS011;70954;49.500;10.416;2024-01-06T08:34:28;4.82;;;2.92;;
81523;SDS011;70954;49.500;10.416;2024-01-06T08:36:53;3.38;;;2.10;;
81523;SDS011;70954;49.500;10.416;2024-01-06T08:39:19;3.60;;;2.40;;
81523;SDS011;70954;49.500;10.416;2024-01-06T08:41:44;3.67;;;2.35;;
81523;SDS011;70954;49.500;10.416;2024-01-06T08:44:09;3.53;;;2.25;;
81523;SDS011;70954;49.500;10.416;2024-01-06T08:46:35;3.72;;;2.33;;
81523;SDS011;70954;49.500;10.416;2024-01-06T08:49:00;3.50;;;2.17;;
81523;SDS011;70954;49.500;10.416;2024-01-06T08:51:26;3.58;;;1.98;;
81523;SDS011;70954;49.500;10.416;2024-01-06T08:53:51;1.83;;;1.65;;
81523;SDS011;70954;49.500;10.416;2024-01-06T08:56:17;3.10;;;1.88;;
81523;SDS011;70954;49.500;10.416;2024-01-06T08:58:42;3.45;;;2.58;;
81523;SDS011;70954;49.500;10.416;2024-01-06T09:01:08;5.43;;;2.40;;
81523;SDS011;70954;49.500;10.416;2024-01-06T09:03:33;3.47;;;2.22;;
81523;SDS011;70954;49.500;10.416;2024-01-06T09:05:59;3.13;;;2.08;;
81523;SDS011;70954;49.500;10.416;2024-01-06T09:08:24;6.38;;;2.20;;
81523;SDS011;70954;49.500;10.416;2024-01-06T09:10:50;3.03;;;1.83;;
81523;SDS011;70954;49.500;10.416;2024-01-06T09:13:15;2.83;;;2.10;;
81523;SDS011;70954;49.500;10.416;2024-01-06T09:15:41;2.75;;;1.95;;
81523;SDS011;70954;49.500;10.416;2024-01-06T09:18:06;2.47;;;1.70;;
81523;SDS011;70954;49.500;10.416;2024-01-06T09:20:31;2.47;;;1.48;;
81523;SDS011;70954;49.500;10.416;2024-01-06T09:22:57;2.05;;;1.60;;
81523;SDS011;70954;49.500;10.416;2024-01-06T09:25:22;2.45;;;1.85;;
81523;SDS011;70954;49.500;10.416;2024-01-06T09:27:48;2.17;;;1.50;;
81523;SDS011;70954;49.500;10.416;2024-01-06T09:30:13;2.92;;;1.85;;
81523;SDS011;70954;49.500;10.416;2024-01-06T09:32:39;2.33;;;1.70;;
81523;SDS011;70954;49.500;10.416;2024-01-06T09:35:04;2.50;;;1.80;;
81523;SDS011;70954;49.500;10.416;2024-01-06T09:37:30;3.38;;;1.58;;
81523;SDS011;70954;49.500;10.416;2024-01-06T09:39:55;2.58;;;1.85;;
81523;SDS011;70954;49.500;10.416;2024-01-06T09:42:21;3.08;;;1.88;;
81523;SDS011;70954;49.500;10.416;2024-01-06T09:44:46;3.28;;;2.00;;
81523;SDS011;70954;49.500;10.416;2024-01-06T09:47:12;3.10;;;1.90;;
81523;SDS011;70954;49.500;10.416;2024-01-06T09:49:38;4.30;;;2.05;;
81523;SDS011;70954;49.500;10.416;2024-01-06T09:52:03;2.63;;;2.00;;
81523;SDS011;70954;49.500;10.416;2024-01-06T09:54:31;4.85;;;2.17;;
81523;SDS011;70954;49.500;10.416;2024-01-06T09:57:00;4.25;;;2.58;;
81523;SDS011;70954;49.500;10.416;2024-01-06T09:59:28;3.42;;;2.40;;
81523;SDS011;70954;49.500;10.416;2024-01-06T10:01:53;2.50;;;1.92;;
81523;SDS011;70954;49.500;10.416;2024-01-06T10:04:21;2.78;;;1.90;;
81523;SDS011;70954;49.500;10.416;2024-01-06T10:06:47;3.95;;;2.20;;
81523;SDS011;70954;49.500;10.416;2024-01-06T10:09:12;2.53;;;1.80;;
81523;SDS011;70954;49.500;10.416;2024-01-06T10:11:38;2.70;;;1.88;;
81523;SDS011;70954;49.500;10.416;2024-01-06T10:14:04;7.03;;;4.40;;
81523;SDS011;70954;49.500;10.416;2024-01-06T10:16:30;5.97;;;3.00;;
81523;SDS011;70954;49.500;10.416;2024-01-06T10:18:56;3.75;;;2.33;;
81523;SDS011;70954;49.500;10.416;2024-01-06T10:21:21;3.08;;;2.08;;
81523;SDS011;70954;49.500;10.416;2024-01-06T10:23:47;5.00;;;2.33;;
81523;SDS011;70954;49.500;10.416;2024-01-06T10:26:13;3.55;;;2.28;;
81523;SDS011;70954;49.500;10.416;2024-01-06T10:28:39;2.33;;;1.90;;
81523;SDS011;70954;49.500;10.416;2024-01-06T10:31:04;3.83;;;2.28;;
81523;SDS011;70954;49.500;10.416;2024-01-06T10:33:29;3.25;;;2.17;;
81523;SDS011;70954;49.500;10.416;2024-01-06T10:35:57;2.42;;;1.90;;
81523;SDS011;70954;49.500;10.416;2024-01-06T10:38:25;2.70;;;1.80;;
81523;SDS011;70954;49.500;10.416;2024-01-06T10:40:57;2.95;;;1.85;;
81523;SDS011;70954;49.500;10.416;2024-01-06T10:43:27;2.72;;;1.75;;
81523;SDS011;70954;49.500;10.416;2024-01-06T10:45:53;3.30;;;1.75;;
81523;SDS011;70954;49.500;10.416;2024-01-06T10:48:20;4.28;;;2.42;;
81523;SDS011;70954;49.500;10.416;2024-01-06T10:50:46;8.32;;;3.97;;
81523;SDS011;70954;49.500;10.416;2024-01-06T10:53:12;6.13;;;3.42;;
81523;SDS011;70954;49.500;10.416;2024-01-06T10:55:39;12.15;;;5.45;;
81523;SDS011;70954;49.500;10.416;2024-01-06T10:58:06;9.82;;;4.43;;
81523;SDS011;70954;49.500;10.416;2024-01-06T11:00:32;12.50;;;5.40;;
81523;SDS011;70954;49.500;10.416;2024-01-06T11:02:58;6.97;;;3.45;;
81523;SDS011;70954;49.500;10.416;2024-01-06T11:05:24;8.57;;;3.90;;
81523;SDS011;70954;49.500;10.416;2024-01-06T11:07:50;4.43;;;2.38;;
81523;SDS011;70954;49.500;10.416;2024-01-06T11:10:17;2.45;;;1.75;;
81523;SDS011;70954;49.500;10.416;2024-01-06T11:12:43;5.38;;;3.30;;
81523;SDS011;70954;49.500;10.416;2024-01-06T11:15:09;7.10;;;3.63;;
81523;SDS011;70954;49.500;10.416;2024-01-06T11:17:50;10.18;;;5.50;;
81523;SDS011;70954;49.500;10.416;2024-01-06T11:20:20;17.02;;;8.00;;
81523;SDS011;70954;49.500;10.416;2024-01-06T11:22:45;26.65;;;12.48;;
81523;SDS011;70954;49.500;10.416;2024-01-06T11:25:15;9.73;;;4.50;;
81523;SDS011;70954;49.500;10.416;2024-01-06T11:27:42;8.65;;;4.68;;
81523;SDS011;70954;49.500;10.416;2024-01-06T11:30:09;9.95;;;5.13;;
81523;SDS011;70954;49.500;10.416;2024-01-06T11:32:47;6.90;;;3.63;;
81523;SDS011;70954;49.500;10.416;2024-01-06T11:35:13;3.33;;;2.15;;
81523;SDS011;70954;49.500;10.416;2024-01-06T11:43:07;10.82;;;4.30;;
81523;SDS011;70954;49.500;10.416;2024-01-06T11:45:36;6.22;;;3.22;;
81523;SDS011;70954;49.500;10.416;2024-01-06T11:48:03;22.45;;;15.57;;
81523;SDS011;70954;49.500;10.416;2024-01-06T11:50:33;12.40;;;8.80;;
81523;SDS011;70954;49.500;10.416;2024-01-06T11:53:01;7.03;;;4.05;;
81523;SDS011;70954;49.500;10.416;2024-01-06T11:55:27;4.53;;;2.72;;
81523;SDS011;70954;49.500;10.416;2024-01-06T11:57:52;3.33;;;2.67;;
81523;SDS011;70954;49.500;10.416;2024-01-06T12:00:19;5.82;;;4.95;;
81523;SDS011;70954;49.500;10.416;2024-01-06T12:02:44;3.28;;;2.35;;
81523;SDS011;70954;49.500;10.416;2024-01-06T12:05:13;2.92;;;1.80;;
81523;SDS011;70954;49.500;10.416;2024-01-06T12:07:42;5.85;;;2.20;;
81523;SDS011;70954;49.500;10.416;2024-01-06T12:10:08;2.35;;;1.67;;
81523;SDS011;70954;49.500;10.416;2024-01-06T12:12:34;3.00;;;2.15;;
81523;SDS011;70954;49.500;10.416;2024-01-06T12:14:59;4.80;;;1.95;;
81523;SDS011;70954;49.500;10.416;2024-01-06T12:17:27;2.58;;;1.65;;
81523;SDS011;70954;49.500;10.416;2024-01-06T12:19:54;2.08;;;1.42;;
81523;SDS011;70954;49.500;10.416;2024-01-06T12:22:20;2.30;;;1.90;;
81523;SDS011;70954;49.500;10.416;2024-01-06T12:24:48;4.18;;;2.40;;
81523;SDS011;70954;49.500;10.416;2024-01-06T12:27:16;4.22;;;2.80;;
81523;SDS011;70954;49.500;10.416;2024-01-06T12:29:41;6.38;;;3.08;;
81523;SDS011;70954;49.500;10.416;2024-01-06T12:32:10;3.92;;;2.15;;
81523;SDS011;70954;49.500;10.416;2024-01-06T12:34:36;5.78;;;3.00;;
81523;SDS011;70954;49.500;10.416;2024-01-06T12:37:02;5.97;;;3.97;;
81523;SDS011;70954;49.500;10.416;2024-01-06T12:39:28;5.13;;;3.28;;
81523;SDS011;70954;49.500;10.416;2024-01-06T12:41:54;6.40;;;3.03;;
81523;SDS011;70954;49.500;10.416;2024-01-06T12:44:20;4.25;;;2.85;;
81523;SDS011;70954;49.500;10.416;2024-01-06T12:46:46;6.57;;;3.35;;
81523;SDS011;70954;49.500;10.416;2024-01-06T12:49:12;5.68;;;3.55;;
81523;SDS011;70954;49.500;10.416;2024-01-06T12:51:38;5.80;;;3.03;;
81523;SDS011;70954;49.500;10.416;2024-01-06T12:54:03;5.88;;;3.13;;
81523;SDS011;70954;49.500;10.416;2024-01-06T12:56:29;3.85;;;2.20;;
81523;SDS011;70954;49.500;10.416;2024-01-06T12:58:54;3.83;;;2.53;;
81523;SDS011;70954;49.500;10.416;2024-01-06T13:01:20;2.75;;;1.92;;
81523;SDS011;70954;49.500;10.416;2024-01-06T13:03:45;3.13;;;2.40;;
81523;SDS011;70954;49.500;10.416;2024-01-06T13:06:11;3.20;;;2.28;;
81523;SDS011;70954;49.500;10.416;2024-01-06T13:08:37;3.08;;;2.45;;
81523;SDS011;70954;49.500;10.416;2024-01-06T13:11:03;2.92;;;2.13;;
81523;SDS011;70954;49.500;10.416;2024-01-06T13:13:28;6.00;;;2.47;;
81523;SDS011;70954;49.500;10.416;2024-01-06T13:15:53;3.00;;;1.83;;
81523;SDS011;70954;49.500;10.416;2024-01-06T13:18:19;2.50;;;1.70;;
81523;SDS011;70954;49.500;10.416;2024-01-06T13:20:44;3.15;;;1.65;;
81523;SDS011;70954;49.500;10.416;2024-01-06T13:23:10;1.75;;;1.33;;
81523;SDS011;70954;49.500;10.416;2024-01-06T13:25:35;2.30;;;1.50;;
81523;SDS011;70954;49.500;10.416;2024-01-06T13:28:01;1.50;;;1.38;;
81523;SDS011;70954;49.500;10.416;2024-01-06T13:30:26;1.92;;;1.50;;
81523;SDS011;70954;49.500;10.416;2024-01-06T13:32:52;2.15;;;1.30;;
81523;SDS011;70954;49.500;10.416;2024-01-06T13:35:17;2.88;;;1.35;;
81523;SDS011;70954;49.500;10.416;2024-01-06T13:37:43;2.50;;;1.30;;
81523;SDS011;70954;49.500;10.416;2024-01-06T13:40:08;1.45;;;1.10;;
81523;SDS011;70954;49.500;10.416;2024-01-06T13:42:34;1.70;;;1.30;;
81523;SDS011;70954;49.500;10.416;2024-01-06T13:45:00;3.03;;;1.67;;
81523;SDS011;70954;49.500;10.416;2024-01-06T13:47:25;1.75;;;1.20;;
81523;SDS011;70954;49.500;10.416;2024-01-06T13:49:50;1.85;;;1.52;;
81523;SDS011;70954;49.500;10.416;2024-01-06T13:52:16;1.38;;;1.05;;
81523;SDS011;70954;49.500;10.416;2024-01-06T13:54:41;2.28;;;1.60;;
81523;SDS011;70954;49.500;10.416;2024-01-06T13:57:07;2.50;;;1.40;;
81523;SDS011;70954;49.500;10.416;2024-01-06T13:59:32;1.95;;;1.20;;
81523;SDS011;70954;49.500;10.416;2024-01-06T14:01:58;1.88;;;1.58;;
81523;SDS011;70954;49.500;10.416;2024-01-06T14:04:23;2.63;;;1.58;;
81523;SDS011;70954;49.500;10.416;2024-01-06T14:06:49;4.85;;;1.80;;
81523;SDS011;70954;49.500;10.416;2024-01-06T14:09:14;2.47;;;1.35;;
81523;SDS011;70954;49.500;10.416;2024-01-06T14:11:40;2.17;;;1.33;;
81523;SDS011;70954;49.500;10.416;2024-01-06T14:14:05;2.17;;;1.30;;
81523;SDS011;70954;49.500;10.416;2024-01-06T14:16:30;2.70;;;1.83;;
81523;SDS011;70954;49.500;10.416;2024-01-06T14:18:56;2.17;;;1.40;;
81523;SDS011;70954;49.500;10.416;2024-01-06T14:21:22;2.45;;;1.65;;
81523;SDS011;70954;49.500;10.416;2024-01-06T14:23:47;2.15;;;1.70;;
81523;SDS011;70954;49.500;10.416;2024-01-06T14:26:13;3.08;;;1.98;;
81523;SDS011;70954;49.500;10.416;2024-01-06T14:28:38;2.88;;;1.83;;
81523;SDS011;70954;49.500;10.416;2024-01-06T14:31:04;2.85;;;1.90;;